Time;durP1;ratioP1;P1;durP2;ratioP2;P2;SDS_P1;SDS_P2;PMS_P1;PMS_P2;Temp;Humidity;BMP_temperature;BMP_pressure;BME280_temperature;BME280_humidity;BME280_pressure;Samples;Min_cycle;Max_cycle;Signal;HPM_P1;HPM_P2
2023/10/30 00:04:39;;;;;;;2.50;2.30;;;11.90;99.90;;;12.57;100.00;96930.38;10439681;28;20260;-65
2023/10/30 00:09:42;;;;;;;2.20;2.00;;;11.90;99.90;;;12.60;100.00;96934.75;10441421;28;20221;-65
2023/10/30 00:14:45;;;;;;;2.10;2.00;;;11.90;99.90;;;12.61;100.00;96937.34;10440419;28;20621;-65
2023/10/30 00:19:50;;;;;;;2.05;1.95;;;11.90;99.90;;;12.67;100.00;96946.06;10435763;28;20225;-65
2023/10/30 00:24:53;;;;;;;2.58;2.38;;;12.00;99.90;;;12.63;100.00;96951.09;10441193;28;20232;-65
2023/10/30 00:29:56;;;;;;;4.10;2.90;;;11.90;99.90;;;12.59;100.00;96949.25;10443116;28;20336;-65
2023/10/30 00:35:01;;;;;;;2.47;2.30;;;11.90;99.90;;;12.54;100.00;96955.03;10436899;28;20221;-65
2023/10/30 00:40:05;;;;;;;2.60;2.10;;;11.80;99.90;;;12.56;100.00;96954.28;10435047;28;20227;-66
2023/10/30 00:45:10;;;;;;;2.38;1.95;;;11.80;99.90;;;12.46;100.00;96967.59;10437225;28;20232;-65
2023/10/30 00:50:14;;;;;;;2.42;1.90;;;11.70;99.90;;;12.45;100.00;96972.63;10436880;28;20236;-65
2023/10/30 00:55:18;;;;;;;2.13;2.03;;;11.70;99.90;;;12.48;100.00;96973.66;10436603;28;20221;-65
2023/10/30 01:00:21;;;;;;;2.85;2.10;;;11.70;99.90;;;12.50;100.00;96974.53;10439526;28;20236;-64
2023/10/30 01:05:26;;;;;;;2.42;1.90;;;11.70;99.90;;;12.46;100.00;96993.22;10436806;28;20298;-65
2023/10/30 01:10:29;;;;;;;2.05;1.85;;;11.70;99.90;;;12.50;100.00;96997.63;10436486;28;20239;-65
2023/10/30 01:15:32;;;;;;;1.90;1.80;;;11.80;99.90;;;12.54;100.00;97007.19;10437284;28;20224;-64
2023/10/30 01:20:40;;;;;;;2.70;2.00;;;11.80;99.90;;;12.62;100.00;97025.41;10434232;28;20229;-65
2023/10/30 01:25:44;;;;;;;2.50;2.30;;;11.80;99.90;;;12.61;100.00;97029.63;10435027;28;20235;-65
2023/10/30 01:30:47;;;;;;;2.85;2.42;;;11.80;99.90;;;12.57;100.00;97025.22;10434365;28;20650;-65
2023/10/30 01:35:51;;;;;;;2.10;2.00;;;11.80;99.90;;;12.50;100.00;97013.00;10433338;28;20221;-65
2023/10/30 01:40:55;;;;;;;2.47;2.17;;;11.70;99.90;;;12.52;100.00;97006.25;10434283;28;20594;-65
2023/10/30 01:45:58;;;;;;;4.20;1.98;;;11.80;99.90;;;12.52;100.00;96997.69;10438413;28;20311;-66
2023/10/30 01:51:05;;;;;;;2.60;1.80;;;11.80;99.90;;;12.62;100.00;97004.91;10431589;28;20217;-64
2023/10/30 01:56:09;;;;;;;2.20;2.10;;;11.80;99.90;;;12.54;100.00;96999.50;10432531;28;20705;-65
2023/10/30 02:01:13;;;;;;;1.95;1.85;;;11.80;99.90;;;12.51;100.00;97007.06;10432149;28;20693;-65
2023/10/30 02:06:18;;;;;;;2.35;2.15;;;11.80;99.90;;;12.52;100.00;97003.69;10432087;28;20221;-64
2023/10/30 02:11:22;;;;;;;2.22;2.13;;;11.80;99.90;;;12.54;100.00;97001.19;10433072;28;20379;-65
2023/10/30 02:16:25;;;;;;;2.15;2.05;;;11.80;99.90;;;12.59;100.00;97005.66;10435086;28;20229;-65
2023/10/30 02:21:30;;;;;;;2.65;2.13;;;11.90;99.90;;;12.60;100.00;96997.13;10431148;28;20327;-65
2023/10/30 02:26:34;;;;;;;2.25;2.05;;;11.90;99.90;;;12.64;100.00;97003.22;10431499;28;20768;-65
2023/10/30 02:31:37;;;;;;;2.95;2.40;;;11.90;99.90;;;12.73;100.00;96987.28;10433066;28;20239;-65
2023/10/30 02:36:41;;;;;;;4.07;2.60;;;12.00;99.90;;;12.66;100.00;96987.91;10434124;28;20231;-65
2023/10/30 02:41:45;;;;;;;2.40;2.20;;;12.00;99.90;;;12.66;100.00;96990.47;10432139;28;20760;-65
2023/10/30 02:46:48;;;;;;;2.20;2.00;;;11.90;99.90;;;12.73;100.00;96982.16;10434021;28;20236;-64
2023/10/30 02:51:52;;;;;;;2.10;2.00;;;12.00;99.90;;;12.71;100.00;96984.69;10431918;28;20225;-65
2023/10/30 02:56:56;;;;;;;3.40;2.42;;;12.00;99.90;;;12.74;100.00;96979.66;10432403;28;20732;-66
2023/10/30 03:02:00;;;;;;;2.50;2.30;;;12.00;99.90;;;12.76;100.00;96964.31;10433609;28;20228;-66
2023/10/30 03:07:03;;;;;;;2.33;2.10;;;12.00;99.90;;;12.85;100.00;96967.22;10433604;28;20614;-65
2023/10/30 03:12:08;;;;;;;2.33;2.00;;;12.00;99.90;;;12.79;100.00;96957.63;10430434;28;20290;-66
2023/10/30 03:17:11;;;;;;;2.63;1.95;;;12.00;99.90;;;12.69;100.00;96949.56;10431796;28;20329;-65
2023/10/30 03:22:14;;;;;;;2.40;2.20;;;11.90;99.90;;;12.70;100.00;96938.47;10432411;28;20237;-65
2023/10/30 03:27:19;;;;;;;2.45;2.22;;;11.80;99.90;;;12.60;100.00;96957.81;10429674;28;20224;-65
2023/10/30 03:32:22;;;;;;;2.53;2.33;;;11.80;99.90;;;12.45;100.00;96950.47;10432260;28;20669;-65
2023/10/30 03:37:25;;;;;;;2.38;2.28;;;11.70;99.90;;;12.47;100.00;96961.63;10428820;28;20742;-66
2023/10/30 03:42:30;;;;;;;2.30;2.20;;;11.70;99.90;;;12.50;100.00;96948.91;10432322;28;20240;-65
2023/10/30 03:47:33;;;;;;;1.90;1.80;;;11.80;99.90;;;12.50;100.00;96935.22;10427826;28;20236;-65
2023/10/30 03:52:36;;;;;;;2.90;1.90;;;11.80;99.90;;;12.51;100.00;96945.56;10427309;28;20229;-65
2023/10/30 03:57:43;;;;;;;2.20;2.00;;;11.80;99.90;;;12.62;100.00;96959.63;10427006;28;20750;-65
2023/10/30 04:02:47;;;;;;;2.63;2.40;;;11.90;99.90;;;12.55;100.00;96952.53;10430395;28;20233;-65
2023/10/30 04:07:50;;;;;;;2.50;2.28;;;11.80;99.90;;;12.50;100.00;96945.50;10430747;28;20245;-65
2023/10/30 04:12:55;;;;;;;2.83;2.63;;;11.80;99.90;;;12.53;100.00;96938.81;10428628;28;20229;-65
2023/10/30 04:17:58;;;;;;;3.92;2.67;;;11.80;99.90;;;12.57;100.00;96915.00;10429924;28;20231;-65
2023/10/30 04:23:01;;;;;;;4.32;2.67;;;11.90;99.90;;;12.56;100.00;96886.72;10427441;28;20291;-65
2023/10/30 04:28:06;;;;;;;2.10;2.00;;;11.80;99.90;;;12.76;100.00;96896.00;10435247;28;20704;-65
2023/10/30 04:33:09;;;;;;;3.28;2.58;;;11.90;99.90;;;12.34;100.00;96905.66;10439250;28;20601;-65
2023/10/30 04:38:12;;;;;;;2.88;2.63;;;11.60;99.90;;;12.12;100.00;96899.78;10437978;28;20237;-66
2023/10/30 04:43:16;;;;;;;3.60;2.88;;;11.40;99.90;;;12.00;100.00;96899.34;10439782;28;20255;-64
2023/10/30 04:48:19;;;;;;;2.53;2.40;;;11.20;99.90;;;11.86;100.00;96895.41;10436338;28;20228;-65
2023/10/30 04:53:23;;;;;;;2.95;2.75;;;11.10;99.90;;;11.77;100.00;96889.94;10436020;28;20240;-64
2023/10/30 04:58:27;;;;;;;3.40;3.13;;;11.00;99.90;;;11.68;100.00;96881.09;10437404;28;20239;-64
2023/10/30 05:03:31;;;;;;;2.83;2.63;;;10.90;99.90;;;11.73;100.00;96874.47;10438734;28;20232;-64
2023/10/30 05:08:36;;;;;;;3.50;2.83;;;10.90;99.90;;;11.66;100.00;96869.91;10436920;28;20645;-64
2023/10/30 05:13:41;;;;;;;3.75;2.63;;;10.90;99.90;;;11.61;100.00;96883.38;10440620;28;21594;-64
2023/10/30 05:18:44;;;;;;;4.32;3.15;;;10.80;99.90;;;11.53;100.00;96903.53;10434384;28;20767;-64
2023/10/30 05:23:48;;;;;;;3.50;3.20;;;10.80;99.90;;;11.39;100.00;96897.94;10438253;28;20232;-64
2023/10/30 05:28:53;;;;;;;3.50;3.20;;;10.70;99.90;;;11.40;100.00;96902.22;10435518;28;20233;-64
2023/10/30 05:33:56;;;;;;;3.65;3.30;;;10.60;99.90;;;11.42;100.00;96912.53;10436560;28;20612;-64
2023/10/30 05:38:59;;;;;;;2.65;2.50;;;10.70;99.90;;;11.46;100.00;96901.56;10436484;28;20229;-64
2023/10/30 05:44:05;;;;;;;6.28;5.70;;;10.70;99.90;;;11.42;100.00;96881.81;10436983;28;20712;-66
2023/10/30 05:49:08;;;;;;;3.80;2.92;;;10.70;99.90;;;11.32;100.00;96874.59;10434368;28;20221;-64
2023/10/30 05:54:11;;;;;;;32.97;30.52;;;10.50;99.90;;;11.21;100.00;96892.94;10437357;28;21057;-66
2023/10/30 05:59:17;;;;;;;5.88;5.22;;;10.40;99.90;;;11.12;100.00;96892.59;10437926;28;20225;-65
2023/10/30 06:04:20;;;;;;;2.53;2.35;;;10.30;99.90;;;10.92;100.00;96880.72;10436788;28;20724;-65
2023/10/30 06:09:24;;;;;;;2.30;1.98;;;10.10;99.90;;;10.76;100.00;96881.81;10434763;28;20217;-64
2023/10/30 06:14:29;;;;;;;3.10;2.63;;;10.00;99.90;;;10.72;100.00;96869.69;10433743;28;20286;-65
2023/10/30 06:19:32;;;;;;;2.65;2.42;;;10.00;99.90;;;10.75;100.00;96880.91;10430199;28;20735;-66
2023/10/30 06:24:35;;;;;;;3.05;2.83;;;10.00;99.90;;;10.63;100.00;96877.00;10432519;28;20225;-65
2023/10/30 06:29:40;;;;;;;2.67;2.38;;;10.10;99.90;;;10.70;100.00;96882.44;10433710;28;20225;-66
2023/10/30 06:34:43;;;;;;;2.60;2.40;;;10.10;99.90;;;10.74;100.00;96876.63;10429941;28;20771;-65
2023/10/30 06:39:47;;;;;;;2.88;2.05;;;10.10;99.90;;;10.76;100.00;96879.25;10430760;28;20248;-65
2023/10/30 06:44:52;;;;;;;5.90;5.55;;;10.10;99.90;;;10.92;100.00;96873.06;10431634;28;20830;-67
2023/10/30 06:49:55;;;;;;;3.92;3.65;;;10.20;99.90;;;11.16;100.00;96878.25;10428505;28;20506;-66
2023/10/30 06:54:59;;;;;;;4.85;4.45;;;10.50;99.90;;;11.52;100.00;96868.53;10425925;28;20225;-64
2023/10/30 07:00:06;;;;;;;5.57;5.18;;;10.80;99.90;;;11.79;100.00;96885.72;10435240;28;20315;-68
2023/10/30 07:05:09;;;;;;;4.30;4.00;;;11.10;99.90;;;12.08;100.00;96886.81;10436560;28;20255;-66
2023/10/30 07:10:13;;;;;;;4.72;4.22;;;11.30;99.90;;;12.45;100.00;96873.59;10440507;28;20228;-66
2023/10/30 07:15:18;;;;;;;4.22;3.83;;;11.70;99.90;;;12.73;100.00;96875.34;10439487;28;20255;-67
2023/10/30 07:20:21;;;;;;;4.93;4.05;;;12.00;99.90;;;12.91;100.00;96881.91;10436061;28;20260;-65
2023/10/30 07:25:24;;;;;;;4.50;4.20;;;12.20;99.90;;;13.14;100.00;96880.06;10439970;28;20728;-64
2023/10/30 07:30:29;;;;;;;4.60;4.30;;;12.30;99.90;;;13.14;100.00;96885.22;10439034;28;20225;-67
2023/10/30 07:35:32;;;;;;;4.07;3.78;;;12.40;99.90;;;13.37;100.00;96885.94;10435610;28;20692;-65
2023/10/30 07:40:35;;;;;;;4.18;3.88;;;12.70;99.90;;;13.84;100.00;96871.03;10433369;28;20724;-66
2023/10/30 07:45:42;;;;;;;4.32;3.88;;;13.20;99.90;;;13.85;94.82;96871.09;10440338;28;20243;-65
2023/10/30 07:50:45;;;;;;;4.60;4.20;;;13.20;99.90;;;13.90;95.82;96869.50;10432557;28;20235;-65
2023/10/30 07:55:49;;;;;;;5.65;5.22;;;13.00;99.90;;;13.96;94.74;96862.00;10428967;28;21079;-65
2023/10/30 08:00:54;;;;;;;4.78;4.35;;;13.20;99.90;;;14.04;94.49;96853.63;10436306;28;20236;-65
2023/10/30 08:06:00;;;;;;;4.25;3.83;;;13.30;99.90;;;14.26;94.50;96857.63;10437174;28;20221;-65
2023/10/30 08:11:04;;;;;;;3.97;3.67;;;13.50;99.90;;;14.22;92.30;96846.38;10442212;28;20221;-65
2023/10/30 08:16:10;;;;;;;3.72;3.42;;;13.50;99.90;;;14.63;91.33;96844.91;10441518;28;20221;-65
2023/10/30 08:21:13;;;;;;;3.80;3.50;;;13.90;99.90;;;14.65;89.45;96847.53;10439718;28;20232;-65
2023/10/30 08:26:16;;;;;;;4.10;3.80;;;14.00;99.90;;;14.56;89.76;96837.88;10435157;28;20229;-66
2023/10/30 08:31:22;;;;;;;4.72;4.32;;;13.90;99.90;;;14.64;89.31;96825.19;10435631;28;20229;-66
2023/10/30 08:36:26;;;;;;;3.85;3.55;;;14.10;99.90;;;14.98;87.86;96820.88;10434414;28;20232;-66
2023/10/30 08:41:29;;;;;;;3.75;3.03;;;14.40;99.90;;;15.24;85.17;96821.44;10432968;28;20236;-66
2023/10/30 08:46:33;;;;;;;3.80;3.38;;;14.70;99.90;;;15.44;83.66;96816.72;10436128;28;20221;-65
2023/10/30 08:51:41;;;;;;;3.95;3.60;;;14.90;99.90;;;15.05;84.56;96815.00;10432442;28;20236;-65
2023/10/30 08:56:59;;;;;;;3.60;3.30;;;14.50;99.90;;;14.92;86.52;96807.84;10433604;28;20225;-65
2023/10/30 09:02:20;;;;;;;3.08;2.88;;;14.30;99.90;;;15.13;84.44;96813.47;10434996;28;20225;-65
2023/10/30 09:07:24;;;;;;;3.17;2.90;;;14.50;99.90;;;15.22;84.66;96820.53;10432546;28;20229;-66
2023/10/30 09:12:27;;;;;;;3.35;3.05;;;14.60;99.90;;;15.47;82.95;96796.19;10429376;28;20775;-65
2023/10/30 09:17:32;;;;;;;2.55;2.35;;;15.00;99.90;;;15.47;83.00;96791.03;10430945;28;20577;-66
2023/10/30 09:22:35;;;;;;;2.47;2.28;;;14.90;99.90;;;15.59;82.96;96778.41;10433471;28;20640;-65
2023/10/30 09:27:38;;;;;;;3.00;2.75;;;15.00;99.90;;;16.13;83.70;96789.75;10431765;28;20613;-65
2023/10/30 09:32:43;;;;;;;3.42;2.75;;;15.60;99.90;;;16.53;80.94;96791.31;10431871;28;20232;-65
2023/10/30 09:37:46;;;;;;;4.15;2.47;;;15.90;99.90;;;16.20;79.82;96786.47;10434153;28;20229;-65
2023/10/30 09:42:53;;;;;;;2.22;2.03;;;15.70;99.90;;;16.21;79.42;96781.31;10431404;28;20225;-65
2023/10/30 09:47:58;;;;;;;2.60;2.40;;;15.80;99.90;;;16.08;81.41;96776.81;10432048;28;20661;-67
2023/10/30 09:53:04;;;;;;;2.25;2.05;;;15.60;99.90;;;16.48;79.22;96751.66;10427664;28;21672;-65
2023/10/30 09:58:09;;;;;;;2.35;2.15;;;15.90;99.90;;;16.63;76.66;96757.09;10427364;28;20235;-65
2023/10/30 10:03:14;;;;;;;2.10;1.90;;;16.10;99.90;;;16.58;75.45;96750.09;10431325;28;20244;-65
2023/10/30 10:08:17;;;;;;;1.55;1.45;;;16.20;99.90;;;16.58;74.74;96745.81;10430586;28;20228;-65
2023/10/30 10:13:20;;;;;;;2.10;2.00;;;16.10;99.90;;;16.74;73.76;96738.28;10429401;28;20240;-65
2023/10/30 10:18:28;;;;;;;3.00;1.67;;;16.20;99.90;;;16.76;73.40;96734.03;10427629;28;20239;-66
2023/10/30 10:23:33;;;;;;;1.63;1.52;;;16.20;99.90;;;16.80;73.32;96716.06;10429946;28;20229;-65
2023/10/30 10:28:36;;;;;;;1.95;1.70;;;16.20;99.90;;;17.04;71.56;96714.66;10426303;28;20221;-67
2023/10/30 10:33:41;;;;;;;2.35;1.60;;;16.40;99.90;;;16.83;72.40;96707.50;10429054;28;20236;-65
2023/10/30 10:38:58;;;;;;;2.38;1.67;;;16.20;99.90;;;16.83;72.66;96702.34;10429887;28;20627;-66
2023/10/30 10:44:04;;;;;;;2.45;1.80;;;16.10;99.90;;;16.66;76.29;96684.88;10429734;28;20228;-66
2023/10/30 10:49:08;;;;;;;1.75;1.65;;;15.90;99.90;;;16.84;72.51;96680.84;10425904;28;20232;-66
2023/10/30 10:54:18;;;;;;;2.13;1.65;;;16.00;99.90;;;16.86;73.73;96674.00;10426351;28;20233;-66
2023/10/30 10:59:28;;;;;;;2.40;2.20;;;16.10;99.90;;;16.71;75.00;96655.69;10428794;28;20224;-66
2023/10/30 11:04:32;;;;;;;2.38;1.92;;;16.00;99.90;;;16.86;74.46;96641.31;10434305;28;20259;-66
2023/10/30 11:09:41;;;;;;;2.03;1.85;;;16.10;99.90;;;16.86;74.68;96630.97;10420082;28;20228;-66
2023/10/30 11:14:53;;;;;;;2.30;2.10;;;16.10;99.90;;;16.95;74.13;96625.06;10432172;28;20225;-65
2023/10/30 11:20:03;;;;;;;2.22;2.03;;;16.20;99.90;;;16.95;75.30;96621.63;10430264;28;20236;-66
2023/10/30 11:25:08;;;;;;;2.50;1.83;;;16.10;99.90;;;16.87;74.89;96611.19;10428990;28;20747;-67
2023/10/30 11:30:12;;;;;;;1.70;1.60;;;16.10;99.90;;;17.07;74.40;96607.13;10431476;28;20236;-65
2023/10/30 11:35:21;;;;;;;1.90;1.80;;;16.20;99.90;;;17.06;73.20;96602.81;10433502;28;20225;-66
2023/10/30 11:40:25;;;;;;;2.10;1.98;;;16.20;99.90;;;16.90;73.10;96606.06;10436599;28;20232;-65
2023/10/30 11:45:30;;;;;;;2.95;1.90;;;16.10;99.90;;;16.92;72.69;96583.72;10434821;28;20229;-64
2023/10/30 11:50:37;;;;;;;2.05;1.80;;;16.00;99.90;;;16.78;73.05;96575.81;10423872;28;20228;-65
2023/10/30 11:55:42;;;;;;;2.22;2.10;;;15.90;99.90;;;16.69;74.37;96561.94;10408258;28;20236;-65
2023/10/30 12:00:46;;;;;;;1.95;1.85;;;15.90;99.90;;;16.70;74.42;96555.91;10404810;28;20229;-65
2023/10/30 12:05:53;;;;;;;1.60;1.50;;;15.80;99.90;;;16.61;76.12;96539.47;10426909;28;20233;-65
2023/10/30 12:10:56;;;;;;;2.20;2.00;;;15.80;99.90;;;16.62;75.75;96523.13;10434400;28;20331;-66
2023/10/30 12:15:59;;;;;;;3.95;3.65;;;15.80;99.90;;;16.71;75.61;96506.91;10428755;28;20229;-65
2023/10/30 12:21:05;;;;;;;2.67;2.47;;;15.90;99.90;;;16.84;75.52;96488.13;10414593;28;20669;-66
2023/10/30 12:26:08;;;;;;;1.90;1.80;;;16.00;99.90;;;16.93;75.83;96477.03;10414917;28;20885;-66
2023/10/30 12:31:30;;;;;;;3.60;2.08;;;16.20;99.90;;;17.15;76.14;96462.63;10438952;28;20225;-68
2023/10/30 12:36:36;;;;;;;3.25;2.10;;;16.30;99.90;;;17.19;75.60;96453.19;10435509;28;20221;-66
2023/10/30 12:41:39;;;;;;;1.88;1.77;;;16.30;99.90;;;17.55;73.72;96452.59;10421831;28;20315;-66
2023/10/30 12:46:42;;;;;;;2.58;1.88;;;16.70;99.90;;;17.54;74.08;96456.03;10435630;28;20228;-66
2023/10/30 12:51:47;;;;;;;1.77;1.58;;;16.70;99.90;;;17.47;71.76;96449.97;10412627;28;20225;-66
2023/10/30 12:56:50;;;;;;;3.42;2.20;;;16.60;99.90;;;17.47;72.02;96449.09;10410833;28;20229;-65
2023/10/30 13:01:53;;;;;;;1.90;1.80;;;16.60;99.90;;;17.55;70.57;96457.78;10422443;28;20890;-65
2023/10/30 13:07:02;;;;;;;2.35;1.80;;;16.70;99.90;;;17.27;72.38;96452.38;10436353;28;20225;-65
2023/10/30 13:12:05;;;;;;;2.75;1.98;;;16.50;99.90;;;17.22;73.59;96427.38;10436204;28;20237;-65
2023/10/30 13:17:09;;;;;;;2.38;2.15;;;16.40;99.90;;;17.20;70.90;96426.53;10438153;28;20560;-65
2023/10/30 13:22:13;;;;;;;1.98;1.88;;;16.40;99.90;;;17.06;72.25;96422.09;10427797;28;20318;-65
2023/10/30 13:27:16;;;;;;;2.60;1.60;;;16.30;99.90;;;17.03;72.42;96395.41;10423038;28;20588;-64
2023/10/30 13:32:20;;;;;;;2.42;2.00;;;16.30;99.90;;;17.03;74.23;96390.25;10435361;28;20252;-66
2023/10/30 13:37:24;;;;;;;2.60;1.75;;;16.30;99.90;;;17.08;74.84;96373.94;10437076;28;20240;-66
2023/10/30 13:42:27;;;;;;;1.90;1.80;;;16.30;99.90;;;17.08;75.33;96368.78;10435152;28;20236;-66
2023/10/30 13:47:30;;;;;;;2.25;1.90;;;16.30;99.90;;;17.08;75.42;96363.59;10436427;28;20225;-65
2023/10/30 13:52:35;;;;;;;1.98;1.88;;;16.30;99.90;;;17.01;77.15;96366.13;10423436;28;20632;-65
2023/10/30 13:57:38;;;;;;;2.83;1.80;;;16.20;99.90;;;17.00;77.50;96349.78;10431779;28;20229;-64
2023/10/30 14:02:43;;;;;;;2.55;2.05;;;16.10;99.90;;;16.98;78.37;96350.63;10418821;28;20248;-65
2023/10/30 14:07:47;;;;;;;2.72;2.53;;;16.10;99.90;;;16.85;80.94;96345.38;10429696;28;20337;-65
2023/10/30 14:12:51;;;;;;;2.40;1.85;;;16.00;99.90;;;17.07;77.19;96320.56;10436054;28;20255;-65
2023/10/30 14:17:54;;;;;;;2.85;2.03;;;16.00;99.90;;;17.18;76.33;96322.34;10440680;28;20224;-67
2023/10/30 14:22:59;;;;;;;2.72;2.28;;;16.20;99.90;;;16.92;79.04;96288.63;10431198;28;20233;-65
2023/10/30 14:28:03;;;;;;;3.47;2.03;;;16.10;99.90;;;16.84;77.70;96273.09;10439177;28;20599;-67
2023/10/30 14:33:06;;;;;;;2.80;1.77;;;16.00;99.90;;;16.78;76.63;96261.00;10433971;28;20233;-65
2023/10/30 14:38:11;;;;;;;2.10;1.90;;;16.00;99.90;;;16.96;75.58;96243.91;10429179;28;20237;-67
2023/10/30 14:43:14;;;;;;;3.00;1.98;;;16.20;99.90;;;17.01;75.01;96243.06;10431390;28;20732;-64
2023/10/30 14:48:17;;;;;;;2.50;1.67;;;16.30;99.90;;;16.74;76.24;96253.19;10426856;28;20233;-65
2023/10/30 14:53:22;;;;;;;3.08;1.90;;;16.00;99.90;;;16.75;75.14;96229.13;10435030;28;20755;-64
2023/10/30 14:58:25;;;;;;;2.20;2.00;;;15.90;99.90;;;16.60;75.84;96229.88;10431506;28;20315;-65
2023/10/30 15:03:28;;;;;;;3.03;2.20;;;15.80;99.90;;;16.45;76.24;96209.97;10420232;28;20378;-65
2023/10/30 15:08:33;;;;;;;2.53;2.10;;;15.70;99.90;;;16.36;77.98;96192.72;10428110;28;20251;-65
2023/10/30 15:13:36;;;;;;;2.88;2.53;;;15.60;99.90;;;16.29;77.97;96205.59;10423147;28;20614;-66
2023/10/30 15:18:39;;;;;;;2.72;2.53;;;15.50;99.90;;;16.30;79.55;96207.28;10421592;28;20235;-65
2023/10/30 15:23:44;;;;;;;2.67;2.47;;;15.50;99.90;;;16.16;80.43;96223.50;10417608;28;20229;-65
2023/10/30 15:28:47;;;;;;;2.72;2.50;;;15.40;99.90;;;16.03;83.78;96220.81;10421527;28;20232;-64
2023/10/30 15:33:50;;;;;;;2.90;2.60;;;15.20;99.90;;;15.88;86.57;96216.38;10420704;28;20244;-65
2023/10/30 15:38:55;;;;;;;2.97;2.35;;;15.10;99.90;;;15.77;87.32;96208.56;10425428;28;20739;-64
2023/10/30 15:43:59;;;;;;;3.08;2.70;;;14.90;99.90;;;15.69;87.83;96185.28;10421230;28;20240;-65
2023/10/30 15:49:02;;;;;;;3.67;3.10;;;14.90;99.90;;;15.59;89.34;96187.72;10416274;28;20599;-68
2023/10/30 15:54:07;;;;;;;3.42;3.13;;;14.70;99.90;;;15.46;89.40;96176.44;10422516;28;20225;-65
2023/10/30 15:59:15;;;;;;;3.13;2.92;;;14.60;99.90;;;15.32;90.86;96187.44;10420247;28;22013;-67
2023/10/30 16:04:18;;;;;;;3.40;3.20;;;14.50;99.90;;;15.33;91.19;96202.03;10425377;28;20229;-66
2023/10/30 16:09:23;;;;;;;7.07;5.05;;;14.50;99.90;;;15.21;92.14;96201.88;10424088;28;20455;-66
2023/10/30 16:14:26;;;;;;;4.38;4.07;;;14.40;99.90;;;15.17;92.22;96215.56;10425650;28;20240;-65
2023/10/30 16:19:30;;;;;;;4.07;3.78;;;14.40;99.90;;;15.12;93.08;96224.09;10426008;28;20237;-64
2023/10/30 16:24:34;;;;;;;8.07;6.47;;;14.30;99.90;;;15.06;94.90;96233.44;10431119;28;20237;-66
2023/10/30 16:29:38;;;;;;;6.75;5.88;;;14.20;99.90;;;14.85;96.14;96223.75;10429323;28;20244;-65
2023/10/30 16:34:41;;;;;;;5.53;4.90;;;14.10;99.90;;;14.67;98.91;96204.59;10430404;28;20770;-64
2023/10/30 16:39:45;;;;;;;3.80;2.70;;;14.00;99.90;;;14.38;100.00;96185.28;10427677;28;20225;-66
2023/10/30 16:44:51;;;;;;;2.60;2.40;;;13.80;99.90;;;14.27;100.00;96171.41;10430799;28;20240;-66
2023/10/30 16:49:54;;;;;;;5.05;3.53;;;13.70;99.90;;;14.15;100.00;96176.38;10429577;28;20225;-65
2023/10/30 16:54:58;;;;;;;5.78;5.18;;;13.60;99.90;;;14.34;100.00;96191.25;10427737;28;20233;-65
2023/10/30 17:00:02;;;;;;;7.32;6.22;;;13.60;99.90;;;13.87;100.00;96201.59;10431818;28;20320;-64
2023/10/30 17:05:07;;;;;;;6.20;5.70;;;13.40;99.90;;;13.72;100.00;96197.06;10425964;28;21611;-65
2023/10/30 17:10:12;;;;;;;4.78;4.00;;;13.30;99.90;;;13.58;100.00;96207.94;10425455;28;20315;-64
2023/10/30 17:15:16;;;;;;;179.55;101.78;;;13.10;99.90;;;13.55;100.00;96218.16;10429724;28;20237;-63
2023/10/30 17:20:19;;;;;;;35.55;22.95;;;13.10;99.90;;;13.55;100.00;96220.72;10426998;28;20766;-64
2023/10/30 17:25:24;;;;;;;5.65;5.22;;;13.10;99.90;;;13.48;100.00;96220.59;10427589;28;20232;-64
2023/10/30 17:30:27;;;;;;;5.25;4.82;;;13.10;99.90;;;13.43;100.00;96227.34;10426196;28;20331;-64
2023/10/30 17:35:30;;;;;;;5.45;4.18;;;13.10;99.90;;;13.37;100.00;96228.94;10429880;28;20233;-64
2023/10/30 17:40:35;;;;;;;4.68;4.28;;;13.00;99.90;;;13.36;100.00;96238.31;10426986;28;20753;-63
2023/10/30 17:45:38;;;;;;;5.47;4.97;;;13.00;99.90;;;13.36;100.00;96240.88;10428578;28;20279;-63
2023/10/30 17:50:41;;;;;;;14.27;12.35;;;13.00;99.90;;;13.38;100.00;96254.59;10423854;28;20224;-63
2023/10/30 17:55:47;;;;;;;13.10;10.10;;;13.00;99.90;;;13.41;100.00;96246.09;10430135;28;20228;-63
2023/10/30 18:00:50;;;;;;;9.80;8.80;;;13.00;99.90;;;13.38;100.00;96231.50;10429095;28;20616;-63
2023/10/30 18:05:54;;;;;;;11.05;8.88;;;12.90;99.90;;;13.34;100.00;96244.28;10430262;28;20275;-64
2023/10/30 18:10:58;;;;;;;7.75;7.00;;;12.90;99.90;;;13.36;100.00;96238.31;10416736;28;20225;-64
2023/10/30 18:16:03;;;;;;;7.10;6.25;;;12.90;99.90;;;13.38;100.00;96252.03;10431240;28;20236;-64
2023/10/30 18:21:07;;;;;;;5.63;5.10;;;12.80;99.90;;;13.36;100.00;96263.09;10431474;28;20651;-65
2023/10/30 18:26:20;;;;;;;5.63;5.05;;;12.80;99.90;;;13.25;100.00;96255.19;10429030;28;20606;-65
2023/10/30 18:31:23;;;;;;;6.32;5.72;;;12.70;99.90;;;13.20;100.00;96233.69;10419847;28;20235;-64
2023/10/30 18:36:27;;;;;;;9.77;8.27;;;12.60;99.90;;;13.25;100.00;96230.41;10417534;28;20390;-63
2023/10/30 18:41:32;;;;;;;8.30;7.50;;;12.60;99.90;;;13.29;100.00;96231.34;10415083;28;20264;-64
2023/10/30 18:46:35;;;;;;;8.23;7.20;;;12.60;99.90;;;13.18;100.00;96235.34;10416655;28;20233;-63
2023/10/30 18:51:39;;;;;;;8.77;7.88;;;12.60;99.90;;;13.09;100.00;96238.59;10416051;28;20229;-65
2023/10/30 18:56:43;;;;;;;8.60;7.88;;;12.50;99.90;;;13.09;100.00;96223.19;10412774;28;20221;-64
2023/10/30 19:01:46;;;;;;;7.82;7.03;;;12.50;99.90;;;13.15;100.00;96219.91;10407351;28;20244;-64
2023/10/30 19:06:49;;;;;;;9.00;8.10;;;12.60;99.90;;;13.15;100.00;96217.34;10422313;28;20224;-63
2023/10/30 19:11:57;;;;;;;9.77;7.72;;;12.50;99.90;;;13.12;100.00;96207.00;10410929;28;20225;-64
2023/10/30 19:17:01;;;;;;;8.90;8.10;;;12.50;99.90;;;13.10;100.00;96203.53;10412964;28;20244;-65
2023/10/30 19:22:04;;;;;;;9.70;8.90;;;12.50;99.90;;;13.12;100.00;96213.00;10409899;28;20229;-63
2023/10/30 19:27:09;;;;;;;9.60;8.68;;;12.50;99.90;;;13.04;100.00;96217.09;10409547;28;20378;-65
2023/10/30 19:32:12;;;;;;;9.23;8.38;;;12.50;99.90;;;13.08;100.00;96232.59;10411523;28;21115;-65
2023/10/30 19:37:15;;;;;;;8.40;7.65;;;12.50;99.90;;;13.01;100.00;96240.13;10414251;28;20787;-65
2023/10/30 19:42:20;;;;;;;9.25;8.45;;;12.50;99.90;;;13.07;100.00;96248.81;10410293;28;20224;-65
2023/10/30 19:47:23;;;;;;;7.00;6.30;;;12.50;99.90;;;13.06;100.00;96243.66;10410111;28;20228;-65
2023/10/30 19:52:27;;;;;;;7.25;6.57;;;12.50;99.90;;;13.04;100.00;96250.44;10422786;28;20252;-65
2023/10/30 19:57:32;;;;;;;8.98;8.10;;;12.50;99.90;;;13.06;100.00;96247.09;10423143;28;20235;-64
2023/10/30 20:02:35;;;;;;;10.15;9.15;;;12.50;99.90;;;13.01;100.00;96240.97;10418273;28;20599;-64
2023/10/30 20:07:40;;;;;;;7.20;6.60;;;12.50;99.90;;;13.04;100.00;96235.06;10421240;28;20237;-64
2023/10/30 20:12:45;;;;;;;6.22;5.63;;;12.50;99.90;;;13.06;100.00;96238.53;10426484;28;20229;-65
2023/10/30 20:17:48;;;;;;;6.72;6.03;;;12.50;99.90;;;12.96;100.00;96231.47;10429447;28;20236;-65
2023/10/30 20:22:51;;;;;;;5.95;5.45;;;12.40;99.90;;;12.99;100.00;96231.53;10419993;28;20232;-65
2023/10/30 20:27:56;;;;;;;6.05;5.50;;;12.40;99.90;;;13.01;100.00;96230.72;10430932;28;20236;-65
2023/10/30 20:32:59;;;;;;;6.68;5.85;;;12.40;99.90;;;13.00;100.00;96226.44;10426498;28;20229;-65
2023/10/30 20:38:02;;;;;;;6.38;5.60;;;12.40;99.90;;;12.98;100.00;96225.53;10425103;28;20311;-67
2023/10/30 20:43:07;;;;;;;5.68;5.03;;;12.40;99.90;;;12.93;100.00;96228.84;10430754;28;20225;-66
2023/10/30 20:48:10;;;;;;;5.32;4.80;;;12.40;99.90;;;12.97;100.00;96223.81;10426161;28;20225;-65
2023/10/30 20:53:15;;;;;;;6.03;5.43;;;12.40;99.90;;;12.95;100.00;96220.34;10426944;28;20243;-65
2023/10/30 20:58:20;;;;;;;5.50;5.10;;;12.40;99.90;;;12.99;100.00;96222.16;10428141;28;20659;-65